createdAt,value
2019-04-21T00:02:26.471Z,6.87
2019-04-21T00:05:14.148Z,6.70
2019-04-21T00:07:49.505Z,6.17
2019-04-21T00:10:18.783Z,7.13
2019-04-21T00:12:45.895Z,6.33
2019-04-21T00:15:09.706Z,6.40
2019-04-21T00:17:36.950Z,6.50
2019-04-21T00:20:22.453Z,6.83
2019-04-21T00:22:53.371Z,6.50
2019-04-21T00:25:31.676Z,6.47
2019-04-21T00:28:12.210Z,7.03
2019-04-21T00:30:39.823Z,7.10
2019-04-21T00:33:00.215Z,6.53
2019-04-21T00:35:27.453Z,6.47
2019-04-21T00:38:18.378Z,6.53
2019-04-21T00:40:56.652Z,6.77
2019-04-21T00:43:19.888Z,6.70
2019-04-21T00:45:44.849Z,6.83
2019-04-21T00:48:32.959Z,6.67
2019-04-21T00:51:16.926Z,6.77
2019-04-21T00:53:53.482Z,6.73
2019-04-21T00:56:21.300Z,6.47
2019-04-21T00:58:53.600Z,7.30
2019-04-21T01:01:19.824Z,7.03
2019-04-21T01:03:59.086Z,7.33
2019-04-21T01:06:34.033Z,7.00
2019-04-21T01:09:01.277Z,7.63
2019-04-21T01:11:31.847Z,7.33
2019-04-21T01:14:05.126Z,8.63
2019-04-21T01:16:39.586Z,7.17
2019-04-21T01:19:13.902Z,8.13
2019-04-21T01:21:22.023Z,8.07
2019-04-21T01:23:55.692Z,8.07
2019-04-21T01:26:32.528Z,7.40
2019-04-21T01:29:12.066Z,7.37
2019-04-21T01:31:42.626Z,8.30
2019-04-21T01:34:24.920Z,7.43
2019-04-21T01:36:58.693Z,7.13
2019-04-21T01:39:34.506Z,7.30
2019-04-21T01:42:03.208Z,7.77
2019-04-21T01:47:04.944Z,7.47
2019-04-21T01:49:29.558Z,7.43
2019-04-21T01:52:24.691Z,7.33
2019-04-21T01:55:06.425Z,7.63
2019-04-21T01:57:56.653Z,7.73
2019-04-21T02:00:39.399Z,7.60
2019-04-21T02:03:31.494Z,7.50
2019-04-21T02:05:51.392Z,8.13
2019-04-21T02:08:15.533Z,7.33
2019-04-21T02:10:54.874Z,7.83
2019-04-21T02:13:20.226Z,7.70
2019-04-21T02:16:01.072Z,7.83
2019-04-21T02:18:27.580Z,8.30
2019-04-21T02:20:52.822Z,7.50
2019-04-21T02:23:38.513Z,7.63
2019-04-21T02:26:09.724Z,7.30
2019-04-21T02:28:51.726Z,7.90
2019-04-21T02:31:22.638Z,8.53
2019-04-21T02:41:37.862Z,7.30
2019-04-21T02:51:42.577Z,7.57
2019-04-21T02:59:22.836Z,7.97
2019-04-21T03:05:01.710Z,7.93
2019-04-21T03:07:20.002Z,7.57
2019-04-21T03:09:51.099Z,8.03
2019-04-21T03:12:22.178Z,8.47
2019-04-21T03:17:44.137Z,7.97
2019-04-21T03:20:11.528Z,8.73
2019-04-21T03:25:25.175Z,9.67
2019-04-21T03:27:50.141Z,9.47
2019-04-21T03:30:29.856Z,8.80
2019-04-21T03:36:02.246Z,8.70
2019-04-21T03:37:55.423Z,10.53
2019-04-21T03:40:24.033Z,8.93
2019-04-21T03:42:59.447Z,9.10
2019-04-21T03:48:01.405Z,8.77
2019-04-21T03:50:35.423Z,8.70
2019-04-21T03:53:09.568Z,8.73
2019-04-21T03:58:25.908Z,8.00
2019-04-21T04:06:25.696Z,8.33
2019-04-21T04:11:58.332Z,8.00
2019-04-21T04:14:45.951Z,8.17
2019-04-21T04:19:45.424Z,8.13
2019-04-21T04:24:39.158Z,8.70
2019-04-21T04:27:22.485Z,8.00
2019-04-21T04:29:39.680Z,8.73
2019-04-21T04:32:16.901Z,8.50
2019-04-21T04:34:59.537Z,7.47
2019-04-21T04:37:38.340Z,7.50
2019-04-21T04:40:13.532Z,7.90
2019-04-21T04:45:38.498Z,7.60
2019-04-21T04:47:59.048Z,7.40
2019-04-21T04:53:28.735Z,7.60
2019-04-21T04:58:19.231Z,7.07
2019-04-21T05:01:10.177Z,7.47
2019-04-21T05:03:37.218Z,7.27
2019-04-21T05:09:09.433Z,7.30
2019-04-21T05:14:06.252Z,7.33
2019-04-21T05:19:18.115Z,6.30
2019-04-21T05:24:01.365Z,7.08
2019-04-21T05:26:33.145Z,7.28
2019-04-21T05:29:02.024Z,6.55
2019-04-21T05:34:42.645Z,7.05
2019-04-21T05:37:43.268Z,6.42
2019-04-21T05:40:24.776Z,6.50
2019-04-21T05:42:55.777Z,6.22
2019-04-21T05:45:34.838Z,5.80
2019-04-21T05:48:35.085Z,6.03
2019-04-21T05:51:03.695Z,5.95
2019-04-21T05:53:35.689Z,6.95
2019-04-21T05:56:17.270Z,6.20
2019-04-21T05:58:43.986Z,6.55
2019-04-21T06:01:24.089Z,5.97
2019-04-21T06:06:31.008Z,5.70
2019-04-21T06:08:53.978Z,5.60
2019-04-21T06:11:45.907Z,5.50
2019-04-21T06:14:11.862Z,5.47
2019-04-21T06:16:43.086Z,5.12
2019-04-21T06:19:14.227Z,5.40
2019-04-21T06:21:40.461Z,5.00
2019-04-21T06:24:18.791Z,5.00
2019-04-21T06:29:14.882Z,5.30
2019-04-21T06:34:27.829Z,4.92
2019-04-21T06:37:32.701Z,4.75
2019-04-21T06:39:52.419Z,5.10
2019-04-21T06:42:16.417Z,5.72
2019-04-21T06:47:29.963Z,4.90
2019-04-21T06:49:53.717Z,4.60
2019-04-21T07:00:10.406Z,4.62
2019-04-21T07:05:20.311Z,4.62
2019-04-21T07:07:57.590Z,4.90
2019-04-21T07:10:22.497Z,4.92
2019-04-21T07:12:55.862Z,4.87
2019-04-21T07:15:28.308Z,4.87
2019-04-21T07:18:04.597Z,4.45
2019-04-21T07:20:36.258Z,4.42
2019-04-21T07:23:11.232Z,4.30
2019-04-21T07:25:49.311Z,4.05
2019-04-21T07:28:21.502Z,4.47
2019-04-21T07:30:51.558Z,4.05
2019-04-21T07:33:46.222Z,4.20
2019-04-21T07:35:51.705Z,4.95
2019-04-21T07:38:24.405Z,4.20
2019-04-21T07:40:45.793Z,4.00
2019-04-21T07:43:22.179Z,4.67
2019-04-21T07:45:52.478Z,4.22
2019-04-21T07:48:37.613Z,4.20
2019-04-21T07:51:24.898Z,5.08
2019-04-21T07:54:13.364Z,4.45
2019-04-21T07:56:29.025Z,4.42
2019-04-21T07:59:10.050Z,4.47
2019-04-21T08:01:53.511Z,5.00
2019-04-21T08:04:37.871Z,5.08
2019-04-21T08:06:52.415Z,5.35
2019-04-21T08:09:25.557Z,4.87
2019-04-21T08:11:54.752Z,4.65
2019-04-21T08:14:31.782Z,4.33
2019-04-21T08:17:06.011Z,4.15
2019-04-21T08:19:32.191Z,4.12
2019-04-21T08:22:11.066Z,4.10
2019-04-21T08:24:42.128Z,4.15
2019-04-21T08:27:19.055Z,4.40
2019-04-21T08:29:46.280Z,4.03
2019-04-21T08:32:31.115Z,4.08
2019-04-21T08:35:08.483Z,4.35
2019-04-21T08:37:29.537Z,3.92
2019-04-21T08:40:09.860Z,4.10
2019-04-21T08:42:30.511Z,3.87
2019-04-21T08:45:07.383Z,4.22
2019-04-21T08:47:40.069Z,3.98
2019-04-21T08:50:08.017Z,4.10
2019-04-21T08:52:51.003Z,3.33
2019-04-21T08:55:31.787Z,3.87
2019-04-21T08:58:35.449Z,3.67
2019-04-21T09:01:23.799Z,3.70
2019-04-21T09:09:08.163Z,3.67
2019-04-21T09:11:37.554Z,3.70
2019-04-21T09:14:07.816Z,3.60
2019-04-21T09:16:35.195Z,3.47
2019-04-21T09:19:04.444Z,3.08
2019-04-21T09:21:45.003Z,3.30
2019-04-21T09:24:16.674Z,3.17
2019-04-21T09:26:46.574Z,3.35
2019-04-21T09:29:15.961Z,3.90
2019-04-21T09:31:41.815Z,3.20
2019-04-21T09:34:16.469Z,3.60
2019-04-21T09:36:47.844Z,3.85
2019-04-21T09:39:18.781Z,3.98
2019-04-21T09:41:49.877Z,3.35
2019-04-21T09:44:25.505Z,4.03
2019-04-21T09:46:55.926Z,4.05
2019-04-21T09:49:27.161Z,3.72
2019-04-21T09:51:55.300Z,3.98
2019-04-21T09:54:31.243Z,3.77
2019-04-21T09:57:10.633Z,3.85
2019-04-21T09:59:41.776Z,3.83
2019-04-21T10:02:17.470Z,4.10
2019-04-21T10:04:42.492Z,3.98
2019-04-21T10:07:25.799Z,4.37
2019-04-21T10:09:47.990Z,4.75
2019-04-21T10:12:19.934Z,4.87
2019-04-21T10:14:51.766Z,4.08
2019-04-21T10:17:39.620Z,4.20
2019-04-21T10:20:11.829Z,4.33
2019-04-21T10:22:43.080Z,4.87
2019-04-21T10:25:16.775Z,4.70
2019-04-21T10:27:49.393Z,4.10
2019-04-21T10:30:20.433Z,4.40
2019-04-21T10:32:50.815Z,4.42
2019-04-21T10:35:23.076Z,4.37
2019-04-21T10:38:04.408Z,4.10
2019-04-21T10:40:25.543Z,4.30
2019-04-21T10:43:03.938Z,5.67
2019-04-21T10:45:34.927Z,4.00
2019-04-21T10:48:05.274Z,4.37
2019-04-21T10:50:37.038Z,4.00
2019-04-21T10:53:20.826Z,4.08
2019-04-21T10:56:06.406Z,3.40
2019-04-21T10:58:26.587Z,3.60
2019-04-21T11:01:06.572Z,3.50
2019-04-21T11:03:48.777Z,3.70
2019-04-21T11:06:20.990Z,3.72
2019-04-21T11:08:55.396Z,3.60
2019-04-21T11:11:24.042Z,3.30
2019-04-21T11:13:54.853Z,3.45
2019-04-21T11:16:26.933Z,2.92
2019-04-21T11:18:58.040Z,3.58
2019-04-21T11:21:29.221Z,3.40
2019-04-21T11:23:59.709Z,3.20
2019-04-21T11:26:33.821Z,3.67
2019-04-21T11:29:05.430Z,3.58
2019-04-21T11:31:38.952Z,3.60
2019-04-21T11:34:09.422Z,4.28
2019-04-21T11:36:43.919Z,3.70
2019-04-21T11:39:33.535Z,4.67
2019-04-21T11:41:57.710Z,3.67
2019-04-21T11:44:31.133Z,4.08
2019-04-21T11:47:02.652Z,3.95
2019-04-21T11:49:36.955Z,4.10
2019-04-21T11:52:09.073Z,3.45
2019-04-21T11:54:40.679Z,3.33
2019-04-21T11:57:20.523Z,3.47
2019-04-21T11:59:45.890Z,3.37
2019-04-21T12:02:23.568Z,4.05
2019-04-21T12:04:53.891Z,3.90
2019-04-21T12:07:27.151Z,3.70
2019-04-21T12:09:57.893Z,3.62
2019-04-21T12:12:29.510Z,3.92
2019-04-21T12:14:59.989Z,4.10
2019-04-21T12:17:30.282Z,3.65
2019-04-21T12:20:04.212Z,3.58
2019-04-21T12:22:39.080Z,3.58
2019-04-21T12:25:13.225Z,3.80
2019-04-21T12:27:45.692Z,3.70
2019-04-21T12:30:17.733Z,4.10
2019-04-21T12:33:13.993Z,4.20
2019-04-21T12:35:45.931Z,4.50
2019-04-21T12:38:27.995Z,3.75
2019-04-21T12:41:13.329Z,3.60
2019-04-21T12:43:44.538Z,3.72
2019-04-21T12:46:18.200Z,3.87
2019-04-21T12:48:49.698Z,4.65
2019-04-21T12:51:20.102Z,4.20
2019-04-21T12:53:51.966Z,4.45
2019-04-21T12:56:23.400Z,5.12
2019-04-21T12:58:55.264Z,4.30
2019-04-21T13:01:27.393Z,4.20
2019-04-21T13:03:57.899Z,3.90
2019-04-21T13:06:29.698Z,4.50
2019-04-21T13:09:06.917Z,3.67
2019-04-21T13:11:37.214Z,3.92
2019-04-21T13:14:08.238Z,3.95
2019-04-21T13:16:43.561Z,4.50
2019-04-21T13:19:13.883Z,3.70
2019-04-21T13:21:44.212Z,3.80
2019-04-21T13:24:16.062Z,3.22
2019-04-21T13:26:52.358Z,3.30
2019-04-21T13:29:20.510Z,3.12
2019-04-21T13:31:52.144Z,3.62
2019-04-21T13:34:24.115Z,3.60
2019-04-21T13:36:57.422Z,3.00
2019-04-21T13:40:21.100Z,3.65
2019-04-21T13:42:40.008Z,3.65
2019-04-21T13:45:08.267Z,3.50
2019-04-21T13:47:46.233Z,3.50
2019-04-21T13:50:17.407Z,3.22
2019-04-21T13:52:48.948Z,3.10
2019-04-21T13:55:19.473Z,3.08
2019-04-21T13:57:50.479Z,3.08
2019-04-21T14:00:23.998Z,3.30
2019-04-21T14:02:54.702Z,2.95
2019-04-21T14:05:26.537Z,3.65
2019-04-21T14:07:58.012Z,3.20
2019-04-21T14:10:31.344Z,3.87
2019-04-21T14:13:02.598Z,2.85
2019-04-21T14:15:33.567Z,2.92
2019-04-21T14:18:04.667Z,3.35
2019-04-21T14:20:37.432Z,2.77
2019-04-21T14:23:17.224Z,3.15
2019-04-21T14:25:43.749Z,3.20
2019-04-21T14:28:15.633Z,2.80
2019-04-21T14:30:46.167Z,2.77
2019-04-21T14:33:18.205Z,2.55
2019-04-21T14:35:48.630Z,2.58
2019-04-21T14:38:18.947Z,2.70
2019-04-21T14:40:50.323Z,2.58
2019-04-21T14:43:23.751Z,2.52
2019-04-21T14:45:59.132Z,2.40
2019-04-21T14:48:50.892Z,2.40
2019-04-21T14:51:45.218Z,2.67
2019-04-21T14:54:34.763Z,2.30
2019-04-21T14:57:09.339Z,2.70
2019-04-21T14:59:39.678Z,2.37
2019-04-21T15:02:13.903Z,2.50
2019-04-21T15:04:45.902Z,3.27
2019-04-21T15:07:17.470Z,2.42
2019-04-21T15:10:01.092Z,2.70
2019-04-21T15:12:20.341Z,3.00
2019-04-21T15:14:56.012Z,3.20
2019-04-21T15:17:29.140Z,3.37
2019-04-21T15:20:04.455Z,3.50
2019-04-21T15:22:30.845Z,3.55
2019-04-21T15:25:02.834Z,3.15
2019-04-21T15:27:33.334Z,4.03
2019-04-21T15:30:04.830Z,3.50
2019-04-21T15:32:37.350Z,3.35
2019-04-21T15:35:11.075Z,3.65
2019-04-21T15:37:44.065Z,3.50
2019-04-21T15:40:28.213Z,3.10
2019-04-21T15:42:48.380Z,3.80
2019-04-21T15:45:19.004Z,3.10
2019-04-21T15:47:49.977Z,3.25
2019-04-21T15:50:21.866Z,3.47
2019-04-21T15:52:57.978Z,3.55
2019-04-21T15:55:46.687Z,3.50
2019-04-21T15:58:24.992Z,3.83
2019-04-21T16:01:06.957Z,3.50
2019-04-21T16:03:38.578Z,3.50
2019-04-21T16:06:09.703Z,3.62
2019-04-21T16:08:46.595Z,4.03
2019-04-21T16:11:13.980Z,3.62
2019-04-21T16:13:45.882Z,3.60
2019-04-21T16:16:20.182Z,3.70
2019-04-21T16:18:52.087Z,4.92
2019-04-21T16:21:24.088Z,4.55
2019-04-21T16:23:54.486Z,4.20
2019-04-21T16:26:24.826Z,4.03
2019-04-21T16:28:55.339Z,4.28
2019-04-21T16:31:27.897Z,4.10
2019-04-21T16:33:58.820Z,3.90
2019-04-21T16:36:29.826Z,4.25
2019-04-21T16:39:00.156Z,3.87
2019-04-21T16:41:33.959Z,3.80
2019-04-21T16:44:05.132Z,3.72
2019-04-21T16:46:36.033Z,4.22
2019-04-21T16:49:07.550Z,4.00
2019-04-21T16:51:49.831Z,4.22
2019-04-21T16:54:29.252Z,4.03
2019-04-21T16:57:10.050Z,4.03
2019-04-21T16:59:44.458Z,4.30
2019-04-21T17:02:16.451Z,4.70
2019-04-21T17:04:48.499Z,3.90
2019-04-21T17:07:20.012Z,4.03
2019-04-21T17:09:52.879Z,4.70
2019-04-21T17:12:24.544Z,4.45
2019-04-21T17:15:10.737Z,4.30
2019-04-21T17:17:50.102Z,4.08
2019-04-21T17:20:27.887Z,3.95
2019-04-21T17:22:45.492Z,4.42
2019-04-21T17:25:18.262Z,4.25
2019-04-21T17:27:49.284Z,5.67
2019-04-21T17:30:20.534Z,4.05
2019-04-21T17:32:51.946Z,4.37
2019-04-21T17:35:24.762Z,3.95
2019-04-21T17:37:56.258Z,4.67
2019-04-21T17:40:27.965Z,3.92
2019-04-21T17:43:03.220Z,4.30
2019-04-21T17:45:31.072Z,3.85
2019-04-21T17:48:08.171Z,4.67
2019-04-21T17:51:01.352Z,4.50
2019-04-21T17:53:53.779Z,4.40
2019-04-21T17:56:48.127Z,4.28
2019-04-21T17:59:17.604Z,4.30
2019-04-21T18:01:49.678Z,4.47
2019-04-21T18:04:22.846Z,4.58
2019-04-21T18:07:08.190Z,4.37
2019-04-21T18:09:49.880Z,4.75
2019-04-21T18:12:16.682Z,4.20
2019-04-21T18:14:32.731Z,4.45
2019-04-21T18:17:06.576Z,3.92
2019-04-21T18:19:41.820Z,3.45
2019-04-21T18:22:17.465Z,4.12
2019-04-21T18:25:02.978Z,3.85
2019-04-21T18:27:21.975Z,3.98
2019-04-21T18:29:55.368Z,3.90
2019-04-21T18:32:30.830Z,3.92
2019-04-21T18:35:19.129Z,3.67
2019-04-21T18:38:09.654Z,4.08
2019-04-21T18:40:35.226Z,4.30
2019-04-21T18:43:42.121Z,4.45
2019-04-21T18:46:27.000Z,4.33
2019-04-21T18:49:00.760Z,4.75
2019-04-21T18:51:57.186Z,5.00
2019-04-21T18:54:35.846Z,4.67
2019-04-21T18:57:05.404Z,5.03
2019-04-21T18:59:33.660Z,4.75
2019-04-21T19:02:05.895Z,4.93
2019-04-21T19:04:33.869Z,4.70
2019-04-21T19:07:22.751Z,4.80
2019-04-21T19:10:20.492Z,4.75
2019-04-21T19:12:47.744Z,4.85
2019-04-21T19:15:00.608Z,4.30
2019-04-21T19:22:38.816Z,5.00
2019-04-21T19:25:15.415Z,4.72
2019-04-21T19:27:53.203Z,5.10
2019-04-21T19:30:29.825Z,5.17
2019-04-21T19:33:01.090Z,4.77
2019-04-21T19:35:13.054Z,5.13
2019-04-21T19:37:52.019Z,4.97
2019-04-21T19:40:31.025Z,5.57
2019-04-21T19:42:57.853Z,5.10
2019-04-21T19:45:40.926Z,5.15
2019-04-21T19:48:16.510Z,5.00
2019-04-21T19:50:47.302Z,5.27
2019-04-21T19:53:06.231Z,5.43
2019-04-21T19:55:32.072Z,5.40
2019-04-21T19:58:03.150Z,4.97
2019-04-21T20:00:34.734Z,5.80
2019-04-21T20:03:06.246Z,5.20
2019-04-21T20:05:44.480Z,5.27
2019-04-21T20:08:23.599Z,5.33
2019-04-21T20:10:59.622Z,5.43
2019-04-21T20:13:49.127Z,5.67
2019-04-21T20:16:06.581Z,5.37
2019-04-21T20:18:32.567Z,5.30
2019-04-21T20:20:58.335Z,5.20
2019-04-21T20:23:41.153Z,5.23
2019-04-21T20:26:11.854Z,5.33
2019-04-21T20:28:54.757Z,5.30
2019-04-21T20:31:29.368Z,5.63
2019-04-21T20:34:05.082Z,6.07
2019-04-21T20:36:42.862Z,6.20
2019-04-21T20:38:57.930Z,6.00
2019-04-21T20:41:35.327Z,5.50
2019-04-21T20:44:11.852Z,5.87
2019-04-21T20:46:45.117Z,5.73
2019-04-21T20:49:15.604Z,5.60
2019-04-21T20:52:08.121Z,5.90
2019-04-21T20:54:31.706Z,5.60
2019-04-21T20:57:07.789Z,5.53
2019-04-21T20:59:32.754Z,5.92
2019-04-21T21:02:10.138Z,5.90
2019-04-21T21:04:34.945Z,5.70
2019-04-21T21:07:30.605Z,5.63
2019-04-21T21:09:52.282Z,6.17
2019-04-21T21:12:34.608Z,6.30
2019-04-21T21:14:50.223Z,5.40
2019-04-21T21:17:39.251Z,5.87
2019-04-21T21:20:09.007Z,6.33
2019-04-21T21:22:27.910Z,5.87
2019-04-21T21:25:03.845Z,5.95
2019-04-21T21:27:34.164Z,5.87
2019-04-21T21:30:08.371Z,5.60
2019-04-21T21:32:44.230Z,5.63
2019-04-21T21:35:13.202Z,6.30
2019-04-21T21:37:49.555Z,6.20
2019-04-21T21:40:26.039Z,6.00
2019-04-21T21:42:40.686Z,5.60
2019-04-21T21:45:16.009Z,6.70
2019-04-21T21:48:01.028Z,5.60
2019-04-21T21:50:23.589Z,5.80
2019-04-21T21:52:59.838Z,5.65
2019-04-21T21:55:23.642Z,6.12
2019-04-21T21:58:14.268Z,5.60
2019-04-21T22:00:55.409Z,6.30
2019-04-21T22:03:29.412Z,6.22
2019-04-21T22:06:03.566Z,5.83
2019-04-21T22:08:30.431Z,5.40
2019-04-21T22:11:01.452Z,5.73
2019-04-21T22:13:42.838Z,6.35
2019-04-21T22:16:11.824Z,5.95
2019-04-21T22:18:56.286Z,5.80
2019-04-21T22:21:20.363Z,6.13
2019-04-21T22:23:49.862Z,5.90
2019-04-21T22:26:13.461Z,6.12
2019-04-21T22:28:45.598Z,5.92
2019-04-21T22:31:24.581Z,5.55
2019-04-21T22:33:54.875Z,5.53
2019-04-21T22:36:35.512Z,5.60
2019-04-21T22:39:13.384Z,5.50
2019-04-21T22:41:38.279Z,5.75
2019-04-21T22:44:04.823Z,5.90
2019-04-21T22:46:36.123Z,5.78
2019-04-21T22:49:10.352Z,5.53
2019-04-21T22:51:46.493Z,5.95
2019-04-21T22:54:21.565Z,6.10
2019-04-21T22:56:56.275Z,5.73
2019-04-21T22:59:21.033Z,5.50
2019-04-21T23:01:52.275Z,5.17
2019-04-21T23:04:25.409Z,6.00
2019-04-21T23:06:56.654Z,5.47
2019-04-21T23:09:26.731Z,5.70
2019-04-21T23:11:59.322Z,5.78
2019-04-21T23:14:33.493Z,5.85
2019-04-21T23:17:25.541Z,4.90
2019-04-21T23:19:46.020Z,5.20
2019-04-21T23:22:31.293Z,5.97
2019-04-21T23:24:57.384Z,5.25
2019-04-21T23:27:23.798Z,5.60
2019-04-21T23:30:09.817Z,6.20
2019-04-21T23:32:28.797Z,5.37
2019-04-21T23:34:47.778Z,5.87
2019-04-21T23:37:22.181Z,5.60
2019-04-21T23:39:52.176Z,6.00
2019-04-21T23:42:30.723Z,5.08
2019-04-21T23:44:58.392Z,5.25
2019-04-21T23:47:41.825Z,5.50
2019-04-21T23:50:15.832Z,5.33
2019-04-21T23:52:32.522Z,5.65
2019-04-21T23:55:05.229Z,4.92
2019-04-21T23:57:40.808Z,5.28
